Destinations Jersey Airport

Jersey Airport (EGJJ / JER)

Flights to Jersey Airport

Flight number From ETE Dispatch
SPY-210 EHGG Groningen Airport Eelde 01:50

Flights from Jersey Airport

Flight number To ETE Dispatch
SPY-211 EHGG Groningen Airport Eelde
About

Jersey Airport facts

Jersey Airport is located in Jersey at an elevation of 84.4 meters or 277 feet.

Currently, Speedy Airlines serves 2 flights to and from Jersey Airport.

Detailed airport info

Route map

Weather

Current weather

METAR

METAR

Metar data retrieved Sunday, 21 July 2024 at 20:25 UTC

EGJJ 211950Z 27014KT 9999 FEW013 SCT015 16/13 Q1017
Wind Temperature
14 kt 16c